createdAt,value
2019-01-18T00:04:41.596Z,99261.00
2019-01-18T00:09:58.256Z,99267.26
2019-01-18T00:12:48.262Z,99260.95
2019-01-18T00:15:17.801Z,99269.47
2019-01-18T00:17:58.221Z,99260.68
2019-01-18T00:20:27.925Z,99256.77
2019-01-18T00:23:17.425Z,99256.59
2019-01-18T00:25:46.984Z,99278.88
2019-01-18T00:28:16.511Z,99264.03
2019-01-18T00:30:50.849Z,99274.82
2019-01-18T00:33:39.407Z,99279.09
2019-01-18T00:39:28.365Z,99280.81
2019-01-18T00:41:57.939Z,99284.44
2019-01-18T00:44:30.228Z,99287.39
2019-01-18T00:47:05.806Z,99289.05
2019-01-18T00:49:40.130Z,99284.78
2019-01-18T00:52:10.124Z,99291.45
2019-01-18T00:54:39.868Z,99295.09
2019-01-18T00:57:09.418Z,99299.23
2019-01-18T00:59:41.096Z,99297.30
2019-01-18T01:02:10.682Z,99304.66
2019-01-18T01:04:40.088Z,99307.97
2019-01-18T01:07:30.064Z,99307.48
2019-01-18T01:10:02.974Z,99309.27
2019-01-18T01:12:34.918Z,99308.80
2019-01-18T01:15:05.700Z,99328.17
2019-01-18T01:17:38.134Z,99326.39
2019-01-18T01:20:17.210Z,99325.08
2019-01-18T01:22:47.115Z,99320.81
2019-01-18T01:25:16.884Z,99315.72
2019-01-18T01:30:26.486Z,99329.27
2019-01-18T01:35:39.996Z,99334.84
2019-01-18T01:38:13.033Z,99335.66
2019-01-18T01:40:42.697Z,99337.66
2019-01-18T01:43:36.203Z,99342.75
2019-01-18T01:49:25.930Z,99350.72
2019-01-18T01:54:50.607Z,99359.17
2019-01-18T02:00:01.915Z,99370.23
2019-01-18T02:02:43.620Z,99376.06
2019-01-18T02:07:48.346Z,99375.63
2019-01-18T02:10:18.408Z,99389.67
2019-01-18T02:13:09.411Z,99378.41
2019-01-18T02:18:28.024Z,99390.42
2019-01-18T02:23:51.429Z,99396.59
2019-01-18T02:26:39.914Z,99402.30
2019-01-18T02:29:09.854Z,99415.70
2019-01-18T02:31:39.872Z,99406.56
2019-01-18T02:34:28.438Z,99397.08
2019-01-18T02:42:41.016Z,99414.01
2019-01-18T02:45:34.563Z,99421.97
2019-01-18T02:48:04.421Z,99428.50
2019-01-18T02:50:39.596Z,99428.16
2019-01-18T02:53:09.300Z,99426.62
2019-01-18T02:55:57.819Z,99437.55
2019-01-18T02:58:46.399Z,99437.91
2019-01-18T03:01:15.940Z,99444.78
2019-01-18T03:06:39.410Z,99449.66
2019-01-18T03:09:33.177Z,99449.66
2019-01-18T03:12:23.011Z,99455.23
2019-01-18T03:15:11.620Z,99451.92
2019-01-18T03:17:41.157Z,99458.09
2019-01-18T03:20:32.101Z,99452.17
2019-01-18T03:23:13.438Z,99449.34
2019-01-18T03:26:00.915Z,99461.44
2019-01-18T03:28:17.850Z,99461.79
2019-01-18T03:30:48.952Z,99464.41
2019-01-18T03:33:18.608Z,99464.75
2019-01-18T03:36:07.257Z,99470.93
2019-01-18T03:38:39.787Z,99468.32
2019-01-18T03:41:28.321Z,99472.23
2019-01-18T03:47:03.037Z,99467.14
2019-01-18T03:49:35.820Z,99467.75
2019-01-18T03:52:05.378Z,99476.22
2019-01-18T03:54:35.261Z,99481.09
2019-01-18T03:57:24.345Z,99484.78
2019-01-18T04:02:55.747Z,99499.02
2019-01-18T04:05:44.201Z,99507.55
2019-01-18T04:08:13.680Z,99505.55
2019-01-18T04:11:25.742Z,99506.72
2019-01-18T04:13:44.936Z,99505.89
2019-01-18T04:16:14.767Z,99499.97
2019-01-18T04:18:47.000Z,99488.83
2019-01-18T04:21:16.589Z,99499.63
2019-01-18T04:26:40.010Z,99503.53
2019-01-18T04:29:28.681Z,99504.02
2019-01-18T04:32:03.981Z,99508.16
2019-01-18T04:34:53.934Z,99516.47
2019-01-18T04:37:23.686Z,99522.16
2019-01-18T04:43:15.278Z,99526.20
2019-01-18T04:45:44.873Z,99530.25
2019-01-18T04:51:05.163Z,99529.07
2019-01-18T04:53:43.981Z,99530.02
2019-01-18T04:58:57.648Z,99532.28
2019-01-18T05:01:38.119Z,99541.55
2019-01-18T05:04:18.502Z,99539.22
2019-01-18T05:09:50.213Z,99545.14
2019-01-18T05:12:31.911Z,99551.52
2019-01-18T05:15:02.303Z,99549.73
2019-01-18T05:17:41.574Z,99553.17
2019-01-18T05:20:11.680Z,99536.67
2019-01-18T05:23:01.050Z,99548.08
2019-01-18T05:25:49.860Z,99548.55
2019-01-18T05:28:21.847Z,99550.36
2019-01-18T05:31:10.363Z,99549.53
2019-01-18T05:33:59.466Z,99552.98
2019-01-18T05:36:29.052Z,99553.30
2019-01-18T05:38:58.578Z,99556.26
2019-01-18T05:41:47.060Z,99554.48
2019-01-18T05:44:16.810Z,99561.70
2019-01-18T05:46:46.315Z,99562.66
2019-01-18T05:49:25.186Z,99573.93
2019-01-18T05:51:54.650Z,99572.75
2019-01-18T05:54:43.197Z,99570.84
2019-01-18T05:57:21.630Z,99581.64
2019-01-18T05:59:51.143Z,99580.56
2019-01-18T06:02:53.875Z,99586.61
2019-01-18T06:05:14.526Z,99591.00
2019-01-18T06:08:03.150Z,99587.44
2019-01-18T06:10:32.885Z,99588.14
2019-01-18T06:13:05.090Z,99596.10
2019-01-18T06:15:53.659Z,99605.12
2019-01-18T06:21:51.482Z,99613.66
2019-01-18T06:24:40.348Z,99618.05
2019-01-18T06:27:15.148Z,99623.47
2019-01-18T06:30:03.841Z,99616.73
2019-01-18T06:32:52.301Z,99621.97
2019-01-18T06:41:03.685Z,99625.90
2019-01-18T06:43:53.392Z,99637.05
2019-01-18T06:49:05.460Z,99643.69
2019-01-18T06:51:55.974Z,99644.00
2019-01-18T06:57:08.470Z,99652.17
2019-01-18T06:59:38.100Z,99649.44
2019-01-18T07:02:46.501Z,99658.58
2019-01-18T07:05:16.639Z,99660.84
2019-01-18T07:07:46.202Z,99664.38
2019-01-18T07:12:51.518Z,99664.73
2019-01-18T07:15:21.146Z,99661.30
2019-01-18T07:17:52.947Z,99669.45
2019-01-18T07:20:22.522Z,99669.12
2019-01-18T07:22:52.090Z,99666.52
2019-01-18T07:25:44.350Z,99664.73
2019-01-18T07:28:25.071Z,99665.69
2019-01-18T07:33:36.101Z,99674.35
2019-01-18T07:36:08.483Z,99686.78
2019-01-18T07:38:52.624Z,99679.17
2019-01-18T07:41:09.428Z,99688.55
2019-01-18T07:43:39.184Z,99696.26
2019-01-18T07:46:08.774Z,99697.80
2019-01-18T07:51:13.407Z,99712.94
2019-01-18T07:53:54.621Z,99717.92
2019-01-18T07:56:24.497Z,99724.68
2019-01-18T07:58:53.996Z,99726.09
2019-01-18T08:09:36.844Z,99736.30
2019-01-18T08:12:18.353Z,99737.65
2019-01-18T08:14:48.241Z,99735.48
2019-01-18T08:17:18.019Z,99740.56
2019-01-18T08:19:47.459Z,99737.89
2019-01-18T08:22:16.946Z,99745.10
2019-01-18T08:27:34.953Z,99760.83
2019-01-18T08:30:24.863Z,99757.80
2019-01-18T08:32:54.431Z,99765.97
2019-01-18T08:35:24.760Z,99764.15
2019-01-18T08:38:14.707Z,99761.82
2019-01-18T08:40:44.711Z,99772.73
2019-01-18T08:43:16.051Z,99776.20
2019-01-18T08:48:29.844Z,99779.76
2019-01-18T08:51:11.322Z,99782.05
2019-01-18T08:56:36.547Z,99788.34
2019-01-18T08:59:05.992Z,99788.70
2019-01-18T09:01:35.979Z,99783.42
2019-01-18T09:04:31.079Z,99785.16
2019-01-18T09:10:08.019Z,99783.63
2019-01-18T09:12:40.282Z,99787.03
2019-01-18T09:15:29.743Z,99791.23
2019-01-18T09:17:59.353Z,99790.69
2019-01-18T09:20:29.761Z,99800.95
2019-01-18T09:22:59.759Z,99798.27
2019-01-18T09:25:31.830Z,99796.42
2019-01-18T09:28:01.867Z,99799.09
2019-01-18T09:30:36.266Z,99802.96
2019-01-18T09:33:08.162Z,99803.83
2019-01-18T09:35:38.394Z,99801.49
2019-01-18T09:38:30.395Z,99810.40
2019-01-18T09:41:24.674Z,99806.02
2019-01-18T09:43:54.630Z,99807.27
2019-01-18T09:46:24.135Z,99804.75
2019-01-18T09:49:32.860Z,99814.36
2019-01-18T09:52:25.036Z,99807.86
2019-01-18T09:55:13.598Z,99808.66
2019-01-18T09:57:46.824Z,99810.20
2019-01-18T10:00:36.403Z,99809.10
2019-01-18T10:03:06.129Z,99808.20
2019-01-18T10:05:54.511Z,99804.98
2019-01-18T10:08:13.910Z,99806.36
2019-01-18T10:10:43.775Z,99798.26
2019-01-18T10:13:13.549Z,99799.11
2019-01-18T10:16:02.489Z,99800.97
2019-01-18T10:18:32.395Z,99805.63
2019-01-18T10:21:04.850Z,99809.14
2019-01-18T10:23:34.618Z,99807.20
2019-01-18T10:26:04.701Z,99807.45
2019-01-18T10:28:37.255Z,99809.48
2019-01-18T10:31:07.007Z,99812.80
2019-01-18T10:33:36.701Z,99817.84
2019-01-18T10:38:56.684Z,99830.22
2019-01-18T10:41:33.999Z,99831.76
2019-01-18T10:44:23.906Z,99839.07
2019-01-18T10:46:53.652Z,99832.86
2019-01-18T10:49:23.294Z,99831.46
2019-01-18T10:51:52.766Z,99834.63
2019-01-18T10:54:25.818Z,99839.48
2019-01-18T10:59:32.352Z,99829.30
2019-01-18T11:04:52.998Z,99838.41
2019-01-18T11:07:43.071Z,99838.97
2019-01-18T11:10:12.810Z,99838.97
2019-01-18T11:12:47.566Z,99826.01
2019-01-18T11:15:37.068Z,99845.77
2019-01-18T11:23:36.134Z,99847.02
2019-01-18T11:26:06.156Z,99850.78
2019-01-18T11:28:35.938Z,99854.73
2019-01-18T11:33:56.485Z,99850.95
2019-01-18T11:36:46.315Z,99840.53
2019-01-18T11:39:15.781Z,99849.19
2019-01-18T11:41:45.453Z,99850.61
2019-01-18T11:47:07.153Z,99854.89
2019-01-18T11:49:57.186Z,99853.92
2019-01-18T11:55:22.178Z,99857.03
2019-01-18T11:57:52.297Z,99860.63
2019-01-18T12:00:24.717Z,99866.11
2019-01-18T12:03:03.492Z,99864.94
2019-01-18T12:05:52.223Z,99864.66
2019-01-18T12:08:22.057Z,99858.77
2019-01-18T12:10:54.058Z,99863.13
2019-01-18T12:13:23.658Z,99861.01
2019-01-18T12:15:53.847Z,99852.98
2019-01-18T12:18:43.776Z,99863.06
2019-01-18T12:21:13.337Z,99852.27
2019-01-18T12:23:47.409Z,99858.18
2019-01-18T12:26:17.007Z,99859.98
2019-01-18T12:28:49.026Z,99852.09
2019-01-18T12:36:59.434Z,99861.70
2019-01-18T12:39:29.359Z,99856.58
2019-01-18T12:44:47.808Z,99857.55
2019-01-18T12:47:17.344Z,99862.52
2019-01-18T12:49:47.106Z,99862.52
2019-01-18T12:52:35.613Z,99861.75
2019-01-18T12:55:24.282Z,99866.53
2019-01-18T12:57:54.451Z,99866.53
2019-01-18T13:00:43.022Z,99868.33
2019-01-18T13:03:12.649Z,99867.50
2019-01-18T13:05:54.711Z,99866.38
2019-01-18T13:08:24.632Z,99870.81
2019-01-18T13:10:54.292Z,99871.98
2019-01-18T13:13:23.780Z,99871.81
2019-01-18T13:16:14.685Z,99879.06
2019-01-18T13:18:46.690Z,99877.89
2019-01-18T13:21:16.259Z,99866.23
2019-01-18T13:26:21.100Z,99870.98
2019-01-18T13:29:02.340Z,99871.50
2019-01-18T13:31:32.520Z,99887.06
2019-01-18T13:34:21.341Z,99887.06
2019-01-18T13:39:48.344Z,99884.58
2019-01-18T13:42:19.707Z,99889.16
2019-01-18T13:44:49.288Z,99894.06
2019-01-18T13:47:20.055Z,99881.55
2019-01-18T13:52:51.628Z,99906.80
2019-01-18T13:55:25.892Z,99906.48
2019-01-18T13:58:15.827Z,99901.52
2019-01-18T14:00:45.812Z,99907.74
2019-01-18T14:06:04.481Z,99899.59
2019-01-18T14:08:34.125Z,99896.94
2019-01-18T14:16:49.720Z,99907.17
2019-01-18T14:19:38.619Z,99904.65
2019-01-18T14:22:08.361Z,99908.52
2019-01-18T14:24:38.003Z,99910.59
2019-01-18T14:27:26.438Z,99918.27
2019-01-18T14:29:56.342Z,99913.64
2019-01-18T14:32:25.911Z,99921.48
2019-01-18T14:34:55.791Z,99924.66
2019-01-18T14:37:25.302Z,99932.50
2019-01-18T14:40:15.230Z,99933.95
2019-01-18T14:42:45.371Z,99938.16
2019-01-18T14:50:51.658Z,99940.64
2019-01-18T14:53:21.120Z,99944.05
2019-01-18T14:55:50.641Z,99954.69
2019-01-18T14:58:24.561Z,99952.19
2019-01-18T15:01:04.716Z,99956.27
2019-01-18T15:03:34.421Z,99960.47
2019-01-18T15:06:07.320Z,99964.55
2019-01-18T15:08:37.008Z,99965.33
2019-01-18T15:13:42.052Z,99966.22
2019-01-18T15:16:11.837Z,99975.67
2019-01-18T15:18:41.318Z,99978.59
2019-01-18T15:21:31.401Z,99983.14
2019-01-18T15:24:22.149Z,99981.61
2019-01-18T15:26:51.807Z,99988.66
2019-01-18T15:29:21.922Z,99987.13
2019-01-18T15:31:51.383Z,99992.16
2019-01-18T15:34:20.982Z,99993.60
2019-01-18T15:36:50.631Z,99992.94
2019-01-18T15:39:38.960Z,99989.75
2019-01-18T15:44:50.387Z,100000.16
2019-01-18T15:47:20.525Z,99998.49
2019-01-18T15:49:50.386Z,99995.88
2019-01-18T15:52:26.085Z,99994.55
2019-01-18T15:55:16.957Z,100001.12
2019-01-18T16:00:24.901Z,100004.34
2019-01-18T16:03:16.184Z,100006.63
2019-01-18T16:05:45.273Z,100006.79
2019-01-18T16:08:15.019Z,100008.09
2019-01-18T16:10:52.432Z,100007.88
2019-01-18T16:13:39.478Z,100008.48
2019-01-18T16:16:37.945Z,100013.39
2019-01-18T16:21:57.759Z,100017.23
2019-01-18T16:24:27.377Z,100020.47
2019-01-18T16:26:56.874Z,100024.56
2019-01-18T16:29:26.436Z,100026.96
2019-01-18T16:31:56.130Z,100024.59
2019-01-18T16:34:25.569Z,100028.79
2019-01-18T16:36:55.086Z,100036.05
2019-01-18T16:39:28.204Z,100034.25
2019-01-18T16:41:57.675Z,100035.92
2019-01-18T16:44:28.248Z,100036.75
2019-01-18T16:46:57.704Z,100043.17
2019-01-18T16:49:46.313Z,100045.67
2019-01-18T16:52:15.967Z,100038.76
2019-01-18T16:54:45.501Z,100038.62
2019-01-18T16:57:19.143Z,100041.61
2019-01-18T16:59:48.313Z,100028.05
2019-01-18T17:02:17.808Z,100042.91
2019-01-18T17:04:47.526Z,100044.06
2019-01-18T17:07:17.443Z,100051.45
2019-01-18T17:09:47.207Z,100048.77
2019-01-18T17:12:16.827Z,100055.10
2019-01-18T17:14:47.769Z,100049.77
2019-01-18T17:17:19.696Z,100050.66
2019-01-18T17:22:24.622Z,100059.04
2019-01-18T17:25:05.680Z,100061.31
2019-01-18T17:27:35.963Z,100070.13
2019-01-18T17:30:07.215Z,100072.14
2019-01-18T17:32:40.582Z,100075.25
2019-01-18T17:35:16.458Z,100070.96
2019-01-18T17:38:07.621Z,100070.96
2019-01-18T17:40:55.501Z,100072.05
2019-01-18T17:44:03.065Z,100074.19
2019-01-18T17:47:05.304Z,100074.80
2019-01-18T17:49:53.268Z,100089.69
2019-01-18T17:53:06.968Z,100086.88
2019-01-18T17:56:14.508Z,100086.17
2019-01-18T17:59:14.292Z,100092.14
2019-01-18T18:02:09.308Z,100098.70
2019-01-18T18:05:19.483Z,100098.11
2019-01-18T18:08:26.991Z,100098.66
2019-01-18T18:11:49.475Z,100097.36
2019-01-18T18:14:57.075Z,100102.02
2019-01-18T18:18:04.471Z,100095.05
2019-01-18T18:20:57.116Z,100102.80
2019-01-18T18:23:53.964Z,100113.17
2019-01-18T18:27:04.097Z,100111.78
2019-01-18T18:30:11.519Z,100106.33
2019-01-18T18:33:19.027Z,100111.84
2019-01-18T18:39:45.344Z,100118.52
2019-01-18T18:42:52.715Z,100120.55
2019-01-18T18:46:17.590Z,100123.92
2019-01-18T18:49:12.327Z,100128.92
2019-01-18T18:52:19.819Z,100127.27
2019-01-18T18:55:27.239Z,100132.30
2019-01-18T18:58:28.255Z,100132.19
2019-01-18T19:01:30.591Z,100140.63
2019-01-18T19:04:37.898Z,100139.56
2019-01-18T19:07:54.454Z,100138.85
2019-01-18T19:10:51.646Z,100140.31
2019-01-18T19:14:00.360Z,100149.71
2019-01-18T19:17:07.865Z,100151.38
2019-01-18T19:20:10.378Z,100162.55
2019-01-18T19:23:02.266Z,100155.33
2019-01-18T19:29:34.017Z,100166.77
2019-01-18T19:35:08.724Z,100179.37
2019-01-18T19:38:10.742Z,100184.13
2019-01-18T19:41:18.857Z,100188.16
2019-01-18T19:44:14.777Z,100184.59
2019-01-18T19:47:34.402Z,100191.60
2019-01-18T19:50:16.104Z,100195.91
2019-01-18T19:53:24.085Z,100201.83
2019-01-18T19:56:35.092Z,100203.97
2019-01-18T19:59:28.796Z,100208.25
2019-01-18T20:02:30.102Z,100208.61
2019-01-18T20:05:11.006Z,100216.34
2019-01-18T20:08:05.524Z,100223.59
2019-01-18T20:11:11.574Z,100220.03
2019-01-18T20:14:19.079Z,100224.31
2019-01-18T20:17:16.111Z,100224.31
2019-01-18T20:20:09.402Z,100230.49
2019-01-18T20:23:18.168Z,100229.05
2019-01-18T20:26:08.152Z,100232.73
2019-01-18T20:32:32.173Z,100237.37
2019-01-18T20:35:39.594Z,100238.93
2019-01-18T20:38:47.179Z,100240.48
2019-01-18T20:41:42.513Z,100248.58
2019-01-18T20:44:51.974Z,100252.39
2019-01-18T20:50:32.320Z,100252.98
2019-01-18T20:57:01.266Z,100249.63
2019-01-18T21:00:11.622Z,100253.45
2019-01-18T21:06:05.334Z,100260.55
2019-01-18T21:12:08.562Z,100262.69
2019-01-18T21:15:16.566Z,100269.09
2019-01-18T21:18:19.229Z,100263.59
2019-01-18T21:21:29.712Z,100273.66
2019-01-18T21:27:26.535Z,100284.47
2019-01-18T21:30:34.353Z,100289.34
2019-01-18T21:33:02.591Z,100293.48
2019-01-18T21:36:10.204Z,100288.72
2019-01-18T21:39:15.735Z,100297.87
2019-01-18T21:42:21.790Z,100297.87
2019-01-18T21:45:03.219Z,100300.12
2019-01-18T21:48:11.282Z,100300.81
2019-01-18T21:51:21.361Z,100299.25
2019-01-18T21:54:40.882Z,100293.44
2019-01-18T21:57:48.336Z,100303.52
2019-01-18T22:01:02.015Z,100307.19
2019-01-18T22:03:57.036Z,100312.41
2019-01-18T22:07:04.475Z,100313.36
2019-01-18T22:09:58.381Z,100319.63
2019-01-18T22:13:05.904Z,100310.38
2019-01-18T22:16:13.489Z,100312.63
2019-01-18T22:19:22.342Z,100315.72
2019-01-18T22:22:29.816Z,100321.66
2019-01-18T22:28:56.990Z,100322.35
2019-01-18T22:32:05.546Z,100321.30
2019-01-18T22:34:47.910Z,100324.17
2019-01-18T22:37:55.622Z,100327.04
2019-01-18T22:41:03.567Z,100321.81
2019-01-18T22:43:55.015Z,100335.25
2019-01-18T22:47:02.549Z,100332.16
2019-01-18T22:53:22.189Z,100336.81
2019-01-18T22:56:18.216Z,100338.37
2019-01-18T22:59:26.071Z,100334.09
2019-01-18T23:02:19.497Z,100343.34
2019-01-18T23:05:26.941Z,100352.85
2019-01-18T23:11:46.286Z,100352.53
2019-01-18T23:15:03.118Z,100353.73
2019-01-18T23:18:10.835Z,100363.56
2019-01-18T23:21:18.197Z,100352.06
2019-01-18T23:24:43.382Z,100353.62
2019-01-18T23:27:38.430Z,100356.49
2019-01-18T23:30:30.459Z,100362.55
2019-01-18T23:33:38.074Z,100366.58
2019-01-18T23:36:52.710Z,100368.00
2019-01-18T23:43:19.583Z,100370.09
2019-01-18T23:46:26.964Z,100371.30
2019-01-18T23:49:18.550Z,100373.17
2019-01-18T23:52:32.113Z,100372.55
2019-01-18T23:55:39.855Z,100373.86
2019-01-18T23:58:53.072Z,100376.22
